createdAt,value
2022-11-30T00:02:09.740Z,8.77
2022-11-30T00:05:33.933Z,8.87
2022-11-30T00:08:58.649Z,7.47
2022-11-30T00:12:22.601Z,8.20
2022-11-30T00:15:47.707Z,8.60
2022-11-30T00:19:11.124Z,8.00
2022-11-30T00:22:34.943Z,9.53
2022-11-30T00:26:02.965Z,7.43
2022-11-30T00:29:26.978Z,10.10
2022-11-30T00:32:51.818Z,8.03
2022-11-30T00:36:18.012Z,10.60
2022-11-30T00:39:41.803Z,7.77
2022-11-30T00:43:05.339Z,8.10
2022-11-30T00:46:29.239Z,9.73
2022-11-30T00:49:54.199Z,9.30
2022-11-30T00:53:18.350Z,8.37
2022-11-30T00:56:42.457Z,9.80
2022-11-30T01:00:07.438Z,8.80
2022-11-30T01:03:31.469Z,10.73
2022-11-30T01:06:56.855Z,8.77
2022-11-30T01:10:20.478Z,7.40
2022-11-30T01:13:44.424Z,6.73
2022-11-30T01:17:08.544Z,7.73
2022-11-30T01:20:32.396Z,8.70
2022-11-30T01:23:57.834Z,8.40
2022-11-30T01:27:21.705Z,6.87
2022-11-30T01:30:45.504Z,10.00
2022-11-30T01:34:09.033Z,8.27
2022-11-30T01:37:32.866Z,7.83
2022-11-30T01:40:58.267Z,8.23
2022-11-30T01:44:49.315Z,8.87
2022-11-30T01:48:13.230Z,7.27
2022-11-30T01:51:40.915Z,7.90
2022-11-30T01:55:14.102Z,7.30
2022-11-30T01:58:39.368Z,8.47
2022-11-30T02:02:03.472Z,9.60
2022-11-30T02:05:28.473Z,7.23
2022-11-30T02:08:53.875Z,6.63
2022-11-30T02:12:30.537Z,7.20
2022-11-30T02:16:03.622Z,8.27
2022-11-30T02:20:14.789Z,7.80
2022-11-30T02:24:07.350Z,7.93
2022-11-30T02:27:55.371Z,8.53
2022-11-30T02:31:28.329Z,6.83
2022-11-30T02:34:54.367Z,7.20
2022-11-30T02:38:23.955Z,6.10
2022-11-30T02:41:47.785Z,7.80
2022-11-30T02:45:13.246Z,7.63
2022-11-30T02:48:48.051Z,7.30
2022-11-30T02:52:13.318Z,7.27
2022-11-30T02:55:37.281Z,6.60
2022-11-30T02:59:01.458Z,8.40
2022-11-30T03:02:25.656Z,7.83
2022-11-30T03:05:50.570Z,7.93
2022-11-30T03:09:15.172Z,6.97
2022-11-30T03:12:39.020Z,7.67
2022-11-30T03:16:07.961Z,7.50
2022-11-30T03:19:31.898Z,6.23
2022-11-30T03:23:00.865Z,7.23
2022-11-30T03:26:24.474Z,5.80
2022-11-30T03:29:48.346Z,6.53
2022-11-30T03:33:12.212Z,6.43
2022-11-30T03:36:36.118Z,6.10
2022-11-30T03:40:01.009Z,5.90
2022-11-30T03:43:24.884Z,6.30
2022-11-30T03:46:48.833Z,6.80
2022-11-30T03:50:13.003Z,7.40
2022-11-30T03:53:36.718Z,8.60
2022-11-30T03:57:01.566Z,7.47
2022-11-30T04:00:25.207Z,6.00
2022-11-30T04:03:50.063Z,6.27
2022-11-30T04:07:13.607Z,6.90
2022-11-30T04:10:37.390Z,6.50
2022-11-30T04:14:02.618Z,6.20
2022-11-30T04:17:26.580Z,7.27
2022-11-30T04:20:53.211Z,7.03
2022-11-30T04:24:16.677Z,4.53
2022-11-30T04:27:40.457Z,5.23
2022-11-30T04:31:06.162Z,6.93
2022-11-30T04:34:31.477Z,5.80
2022-11-30T04:37:55.543Z,7.27
2022-11-30T04:41:19.133Z,5.53
2022-11-30T04:44:43.173Z,6.67
2022-11-30T04:48:09.471Z,7.00
2022-11-30T04:51:32.987Z,5.73
2022-11-30T04:54:56.961Z,5.47
2022-11-30T04:58:20.879Z,5.23
2022-11-30T05:01:44.770Z,4.00
2022-11-30T05:05:10.772Z,5.60
2022-11-30T05:08:34.634Z,6.30
2022-11-30T05:11:58.604Z,6.10
2022-11-30T05:15:22.382Z,5.20
2022-11-30T05:18:46.255Z,4.57
2022-11-30T05:22:11.524Z,4.73
2022-11-30T05:25:35.058Z,6.50
2022-11-30T05:28:58.558Z,4.90
2022-11-30T05:32:22.103Z,4.97
2022-11-30T05:35:45.739Z,4.70
2022-11-30T05:39:10.976Z,4.93
2022-11-30T05:42:34.498Z,4.97
2022-11-30T05:46:01.851Z,5.40
2022-11-30T05:49:25.406Z,4.17
2022-11-30T05:52:49.259Z,6.30
2022-11-30T05:56:17.075Z,5.17
2022-11-30T05:59:40.929Z,4.60
2022-11-30T06:03:05.083Z,5.87
2022-11-30T06:06:28.977Z,4.00
2022-11-30T06:09:52.596Z,4.70
2022-11-30T06:13:17.828Z,5.07
2022-11-30T06:16:41.628Z,6.47
2022-11-30T06:20:06.395Z,5.03
2022-11-30T06:23:30.724Z,4.80
2022-11-30T06:26:54.529Z,4.63
2022-11-30T06:30:19.912Z,5.37
2022-11-30T06:33:43.720Z,4.43
2022-11-30T06:37:07.564Z,5.13
2022-11-30T06:40:32.146Z,10.03
2022-11-30T06:43:55.678Z,4.23
2022-11-30T06:47:20.477Z,4.27
2022-11-30T06:50:49.768Z,5.03
2022-11-30T06:54:13.636Z,5.03
2022-11-30T06:57:37.298Z,4.63
2022-11-30T07:01:01.087Z,4.27
2022-11-30T07:04:26.203Z,4.90
2022-11-30T07:07:49.809Z,4.30
2022-11-30T07:11:15.258Z,4.77
2022-11-30T07:14:39.254Z,4.60
2022-11-30T07:18:03.090Z,4.20
2022-11-30T07:21:28.087Z,4.90
2022-11-30T07:25:09.234Z,4.77
2022-11-30T07:28:33.449Z,4.03
2022-11-30T07:31:57.254Z,4.57
2022-11-30T07:35:20.850Z,5.30
2022-11-30T07:38:46.229Z,5.13
2022-11-30T07:42:09.982Z,5.40
2022-11-30T07:45:33.532Z,4.90
2022-11-30T07:48:57.115Z,4.83
2022-11-30T07:52:20.659Z,5.67
2022-11-30T07:55:46.133Z,4.60
2022-11-30T07:59:10.539Z,5.60
2022-11-30T08:02:34.302Z,5.70
2022-11-30T08:06:03.137Z,6.67
2022-11-30T08:09:29.558Z,5.15
2022-11-30T08:12:54.660Z,5.43
2022-11-30T08:16:21.521Z,5.63
2022-11-30T08:19:45.027Z,5.97
2022-11-30T08:23:08.536Z,5.67
2022-11-30T08:26:34.955Z,7.20
2022-11-30T08:29:59.921Z,6.17
2022-11-30T08:33:23.459Z,7.20
2022-11-30T08:36:48.789Z,7.77
2022-11-30T08:40:15.569Z,7.23
2022-11-30T08:43:39.139Z,7.37
2022-11-30T08:47:03.990Z,9.17
2022-11-30T08:50:27.611Z,5.70
2022-11-30T08:53:51.487Z,8.33
2022-11-30T08:57:15.342Z,6.10
2022-11-30T09:00:38.899Z,6.90
2022-11-30T09:04:03.741Z,6.37
2022-11-30T09:07:27.403Z,7.03
2022-11-30T09:10:52.054Z,6.30
2022-11-30T09:14:15.846Z,7.73
2022-11-30T09:17:39.399Z,10.30
2022-11-30T09:21:08.389Z,9.90
2022-11-30T09:24:32.077Z,7.03
2022-11-30T09:27:55.985Z,10.83
2022-11-30T09:31:22.711Z,8.93
2022-11-30T09:34:46.475Z,6.87
2022-11-30T09:38:11.598Z,9.33
2022-11-30T09:42:14.160Z,6.80
2022-11-30T09:45:38.995Z,7.03
2022-11-30T09:49:06.842Z,6.90
2022-11-30T09:52:38.319Z,6.67
2022-11-30T09:56:07.246Z,6.53
2022-11-30T09:59:37.744Z,7.43
2022-11-30T10:03:05.780Z,7.10
2022-11-30T10:06:42.000Z,8.07
2022-11-30T10:10:34.109Z,6.50
2022-11-30T10:14:32.512Z,6.00
2022-11-30T10:17:58.350Z,5.17
2022-11-30T10:21:52.620Z,6.17
2022-11-30T10:25:24.778Z,6.13
2022-11-30T10:28:53.607Z,6.73
2022-11-30T10:32:23.406Z,7.43
2022-11-30T10:35:51.867Z,7.40
2022-11-30T10:39:21.927Z,6.80
2022-11-30T10:42:53.386Z,6.50
2022-11-30T10:46:22.744Z,5.37
2022-11-30T10:49:52.688Z,6.67
2022-11-30T10:53:16.474Z,8.63
2022-11-30T10:56:40.142Z,7.37
2022-11-30T11:00:07.525Z,8.03
2022-11-30T11:03:32.107Z,8.80
2022-11-30T11:07:07.464Z,5.93
2022-11-30T11:10:36.335Z,5.87
2022-11-30T11:14:19.801Z,6.77
2022-11-30T11:17:45.983Z,6.17
2022-11-30T11:21:20.862Z,6.17
2022-11-30T11:24:46.935Z,7.07
2022-11-30T11:28:20.164Z,6.03
2022-11-30T11:31:47.352Z,5.33
2022-11-30T11:35:38.378Z,4.60
2022-11-30T11:39:02.895Z,4.10
2022-11-30T11:42:31.574Z,3.83
2022-11-30T11:45:58.776Z,4.33
2022-11-30T11:49:26.865Z,4.17
2022-11-30T11:52:51.614Z,4.77
2022-11-30T11:56:24.970Z,4.30
2022-11-30T11:59:58.153Z,5.70
2022-11-30T12:03:34.968Z,4.70
2022-11-30T12:07:04.029Z,4.50
2022-11-30T12:14:19.594Z,4.33
2022-11-30T12:18:02.001Z,4.40
2022-11-30T12:21:42.853Z,5.40
2022-11-30T12:25:25.724Z,5.27
2022-11-30T12:29:21.840Z,5.53
2022-11-30T12:33:11.943Z,5.63
2022-11-30T12:36:53.975Z,6.60
2022-11-30T12:40:33.932Z,5.27
2022-11-30T12:44:22.169Z,5.20
2022-11-30T12:48:00.010Z,5.43
2022-11-30T12:51:34.347Z,4.80
2022-11-30T12:55:09.251Z,4.10
2022-11-30T12:58:45.460Z,4.20
2022-11-30T13:02:38.633Z,5.07
2022-11-30T13:06:09.927Z,4.83
2022-11-30T13:09:43.362Z,4.67
2022-11-30T13:13:14.985Z,4.23
2022-11-30T13:16:40.249Z,5.87
2022-11-30T13:20:15.866Z,5.30
2022-11-30T13:23:48.920Z,5.70
2022-11-30T13:27:23.764Z,5.43
2022-11-30T13:30:57.045Z,5.50
2022-11-30T13:34:27.074Z,5.80
2022-11-30T13:38:34.705Z,4.90
2022-11-30T13:41:51.034Z,4.50
2022-11-30T13:45:33.540Z,4.90
2022-11-30T13:49:22.159Z,5.33
2022-11-30T13:53:34.029Z,4.40
2022-11-30T13:56:57.595Z,5.80
2022-11-30T14:01:01.386Z,3.90
2022-11-30T14:04:34.560Z,4.33
2022-11-30T14:08:36.781Z,4.50
2022-11-30T14:12:20.408Z,4.60
2022-11-30T14:15:57.596Z,4.13
2022-11-30T14:19:21.585Z,5.00
2022-11-30T14:22:45.886Z,3.87
2022-11-30T14:26:13.089Z,4.60
2022-11-30T14:29:41.102Z,4.00
2022-11-30T14:33:19.482Z,3.97
2022-11-30T14:36:50.178Z,4.03
2022-11-30T14:40:21.542Z,3.90
2022-11-30T14:44:05.842Z,3.67
2022-11-30T14:47:32.944Z,3.60
2022-11-30T14:51:01.152Z,3.93
2022-11-30T14:54:47.601Z,4.53
2022-11-30T14:58:26.188Z,5.70
2022-11-30T15:01:49.862Z,3.93
2022-11-30T15:05:18.418Z,4.30
2022-11-30T15:08:49.963Z,4.47
2022-11-30T15:12:20.563Z,4.17
2022-11-30T15:15:53.533Z,4.60
2022-11-30T15:19:24.184Z,5.10
2022-11-30T15:22:48.341Z,6.03
2022-11-30T15:26:19.842Z,6.27
2022-11-30T15:29:49.416Z,6.20
2022-11-30T15:33:20.944Z,4.90
2022-11-30T15:36:44.928Z,6.10
2022-11-30T15:40:15.707Z,4.57
2022-11-30T15:43:41.645Z,4.33
2022-11-30T15:47:08.702Z,5.33
2022-11-30T15:50:41.537Z,6.17
2022-11-30T15:54:05.299Z,6.27
2022-11-30T15:57:59.833Z,6.17
2022-11-30T16:01:26.233Z,5.87
2022-11-30T16:05:25.278Z,5.13
2022-11-30T16:08:50.106Z,5.37
2022-11-30T16:12:27.255Z,5.13
2022-11-30T16:15:53.464Z,5.43
2022-11-30T16:19:18.451Z,5.67
2022-11-30T16:22:43.059Z,6.90
2022-11-30T16:26:28.913Z,6.00
2022-11-30T16:29:56.603Z,6.63
2022-11-30T16:33:23.287Z,18.92
2022-11-30T16:36:48.235Z,12.13
2022-11-30T16:40:14.283Z,8.40
2022-11-30T16:43:40.767Z,8.90
2022-11-30T16:47:04.381Z,6.90
2022-11-30T16:50:28.007Z,6.20
2022-11-30T16:53:53.424Z,5.43
2022-11-30T16:57:17.036Z,5.70
2022-11-30T17:00:42.068Z,7.57
2022-11-30T17:04:13.173Z,7.30
2022-11-30T17:07:37.909Z,5.70
2022-11-30T17:11:03.115Z,5.60
2022-11-30T17:14:26.811Z,7.20
2022-11-30T17:17:50.603Z,4.07
2022-11-30T17:21:17.841Z,5.43
2022-11-30T17:24:41.425Z,5.40
2022-11-30T17:28:06.430Z,6.20
2022-11-30T17:31:30.423Z,7.17
2022-11-30T17:34:53.971Z,8.87
2022-11-30T17:38:17.659Z,7.70
2022-11-30T17:41:41.324Z,6.83
2022-11-30T17:45:07.823Z,5.70
2022-11-30T17:48:32.086Z,5.03
2022-11-30T17:51:55.799Z,5.10
2022-11-30T17:55:19.251Z,6.00
2022-11-30T17:58:44.944Z,8.13
2022-11-30T18:02:12.352Z,5.10
2022-11-30T18:05:36.002Z,4.43
2022-11-30T18:08:59.931Z,8.23
2022-11-30T18:12:23.582Z,4.30
2022-11-30T18:15:47.065Z,4.40
2022-11-30T18:19:14.728Z,5.10
2022-11-30T18:22:38.230Z,4.67
2022-11-30T18:26:02.085Z,5.03
2022-11-30T18:29:26.840Z,4.43
2022-11-30T18:32:50.496Z,4.43
2022-11-30T18:36:15.828Z,4.07
2022-11-30T18:39:39.322Z,5.57
2022-11-30T18:43:02.865Z,6.70
2022-11-30T18:46:28.300Z,4.53
2022-11-30T18:49:52.143Z,6.27
2022-11-30T18:53:18.627Z,4.40
2022-11-30T18:56:42.638Z,5.20
2022-11-30T19:00:07.600Z,6.27
2022-11-30T19:03:31.098Z,4.50
2022-11-30T19:06:54.573Z,5.73
2022-11-30T19:10:19.438Z,5.57
2022-11-30T19:13:43.098Z,5.10
2022-11-30T19:17:06.628Z,6.23
2022-11-30T19:20:30.422Z,5.77
2022-11-30T19:23:54.441Z,5.10
2022-11-30T19:27:19.343Z,5.73
2022-11-30T19:30:43.012Z,7.33
2022-11-30T19:34:12.629Z,5.87
2022-11-30T19:37:36.994Z,7.37
2022-11-30T19:41:00.594Z,5.10
2022-11-30T19:44:25.583Z,8.83
2022-11-30T19:47:49.333Z,5.23
2022-11-30T19:51:18.026Z,7.07
2022-11-30T19:54:42.532Z,6.73
2022-11-30T19:58:06.538Z,6.60
2022-11-30T20:01:31.689Z,6.20
2022-11-30T20:04:55.365Z,5.67
2022-11-30T20:08:19.149Z,7.33
2022-11-30T20:11:42.623Z,6.23
2022-11-30T20:15:07.374Z,6.47
2022-11-30T20:18:32.357Z,6.70
2022-11-30T20:21:55.928Z,5.80
2022-11-30T20:25:21.158Z,7.17
2022-11-30T20:28:45.857Z,5.30
2022-11-30T20:32:09.377Z,4.27
2022-11-30T20:35:36.413Z,5.90
2022-11-30T20:39:00.600Z,5.23
2022-11-30T20:42:24.133Z,6.27
2022-11-30T20:45:47.809Z,3.77
2022-11-30T20:49:17.595Z,5.40
2022-11-30T20:52:42.511Z,4.57
2022-11-30T20:56:06.977Z,4.30
2022-11-30T20:59:30.436Z,6.37
2022-11-30T21:02:54.142Z,6.00
2022-11-30T21:06:18.236Z,4.40
2022-11-30T21:09:43.310Z,5.57
2022-11-30T21:13:06.955Z,4.80
2022-11-30T21:16:30.580Z,5.87
2022-11-30T21:19:54.162Z,6.00
2022-11-30T21:23:22.293Z,6.77
2022-11-30T21:26:49.894Z,4.50
2022-11-30T21:30:15.412Z,4.57
2022-11-30T21:33:39.284Z,5.07
2022-11-30T21:37:03.153Z,6.20
2022-11-30T21:40:26.709Z,4.20
2022-11-30T21:43:51.904Z,3.70
2022-11-30T21:47:15.725Z,4.30
2022-11-30T21:50:39.528Z,4.10
2022-11-30T21:54:06.325Z,4.40
2022-11-30T21:57:30.243Z,4.40
2022-11-30T22:01:00.155Z,3.43
2022-11-30T22:04:23.781Z,4.33
2022-11-30T22:07:48.562Z,4.80
2022-11-30T22:11:14.865Z,5.00
2022-11-30T22:14:38.383Z,4.27
2022-11-30T22:18:03.309Z,4.47
2022-11-30T22:21:30.141Z,3.53
2022-11-30T22:24:55.239Z,3.60
2022-11-30T22:28:18.882Z,4.50
2022-11-30T22:31:45.627Z,4.50
2022-11-30T22:35:11.030Z,4.03
2022-11-30T22:38:35.374Z,3.73
2022-11-30T22:41:58.888Z,5.53
2022-11-30T22:45:22.425Z,4.70
2022-11-30T22:48:47.140Z,7.63
2022-11-30T22:52:12.128Z,9.52
2022-11-30T22:55:35.848Z,6.83
2022-11-30T22:59:01.087Z,7.10
2022-11-30T23:02:24.782Z,6.00
2022-11-30T23:05:48.427Z,5.03
2022-11-30T23:09:18.115Z,6.90
2022-11-30T23:12:58.967Z,5.57
2022-11-30T23:16:23.548Z,5.20
2022-11-30T23:19:47.423Z,5.03
2022-11-30T23:23:11.311Z,6.60
2022-11-30T23:26:38.535Z,5.50
2022-11-30T23:30:02.132Z,5.47
2022-11-30T23:33:25.714Z,6.43
2022-11-30T23:36:50.590Z,6.10
2022-11-30T23:40:14.870Z,8.70
2022-11-30T23:43:41.566Z,6.60
2022-11-30T23:47:05.466Z,7.43
2022-11-30T23:50:29.193Z,5.07
2022-11-30T23:53:53.036Z,6.47
2022-11-30T23:57:16.615Z,5.63
